Time;durP1;ratioP1;P1;durP2;ratioP2;P2;SDS_P1;SDS_P2;PMS_P1;PMS_P2;Temp;Humidity;BMP_temperature;BMP_pressure;BME280_temperature;BME280_humidity;BME280_pressure;Samples;Min_cycle;Max_cycle;Signal;HPM_P1;HPM_P2
2024/01/02 05:59:35;;;;;;;;;;;3.00;99.90;;;;;;4978219;28;19937;-73
2024/01/02 06:02:02;;;;;;;;;;;3.00;99.90;;;;;;4978199;28;19934;-73
2024/01/02 06:04:29;;;;;;;;;;;3.10;99.90;;;;;;4978158;28;19926;-74
2024/01/02 06:06:55;;;;;;;;;;;3.10;99.90;;;;;;4984615;28;20394;-73
2024/01/02 06:09:22;;;;;;;;;;;3.20;99.90;;;;;;4997089;28;19925;-73
2024/01/02 06:11:48;;;;;;;;;;;3.20;99.90;;;;;;4997078;28;20383;-73
2024/01/02 06:14:15;;;;;;;;;;;3.30;99.90;;;;;;4997163;28;19926;-72
2024/01/02 06:16:43;;;;;;;;;;;3.30;99.90;;;;;;4996905;28;20032;-72
2024/01/02 06:19:11;;;;;;;;;;;3.30;99.90;;;;;;4997346;28;19926;-72
2024/01/02 06:21:38;;;;;;;;;;;3.40;99.90;;;;;;4997994;28;19997;-71
2024/01/02 06:24:04;;;;;;;;;;;3.40;99.90;;;;;;4998679;28;19933;-72
2024/01/02 06:26:31;;;;;;;;;;;3.40;99.90;;;;;;4997552;28;20402;-72
2024/01/02 06:28:58;;;;;;;;;;;3.40;99.90;;;;;;4997646;28;19926;-72
2024/01/02 06:31:24;;;;;;;;;;;3.50;99.90;;;;;;4996624;28;19930;-71
2024/01/02 06:33:52;;;;;;;;;;;3.50;99.90;;;;;;4996445;28;20388;-71
2024/01/02 06:36:19;;;;;;;;;;;3.40;99.90;;;;;;4996511;28;19929;-72
2024/01/02 06:38:45;;;;;;;;;;;3.40;99.90;;;;;;4997154;28;20374;-72
2024/01/02 06:41:12;;;;;;;;;;;3.50;99.90;;;;;;4996562;28;19933;-72
2024/01/02 06:43:38;;;;;;;;;;;3.50;99.90;;;;;;4996497;28;19929;-72
2024/01/02 06:46:05;;;;;;;;;;;3.50;99.90;;;;;;4996553;28;19930;-72
2024/01/02 06:48:32;;;;;;;;;;;3.50;99.90;;;;;;4996574;28;19933;-72
2024/01/02 06:50:59;;;;;;;;;;;3.50;99.90;;;;;;4996322;28;19933;-72
2024/01/02 06:53:26;;;;;;;;;;;3.50;99.90;;;;;;4996523;28;19933;-72
2024/01/02 06:55:53;;;;;;;;;;;3.60;99.90;;;;;;4996613;28;19926;-71
2024/01/02 06:58:18;;;;;;;;;;;3.60;99.90;;;;;;4996499;28;19925;-72
2024/01/02 07:00:45;;;;;;;;;;;3.70;99.90;;;;;;4996740;28;19928;-72
2024/01/02 07:03:11;;;;;;;;;;;3.70;99.90;;;;;;4996389;28;19929;-72
2024/01/02 07:05:39;;;;;;;;;;;3.80;99.90;;;;;;4996362;28;19933;-72
2024/01/02 07:08:07;;;;;;;;;;;3.80;99.90;;;;;;4996032;28;19926;-71
2024/01/02 07:10:34;;;;;;;;;;;3.80;99.90;;;;;;4996172;28;19933;-71
2024/01/02 07:13:00;;;;;;;;;;;3.90;99.90;;;;;;4996063;28;19937;-71
2024/01/02 07:15:27;;;;;;;;;;;3.90;99.90;;;;;;4995892;28;19948;-72
2024/01/02 07:17:54;;;;;;;;;;;3.90;99.90;;;;;;4995717;28;19932;-71
2024/01/02 07:20:21;;;;;;;;;;;4.00;99.90;;;;;;4995841;28;19926;-71
2024/01/02 07:22:48;;;;;;;;;;;4.00;99.90;;;;;;4995515;28;20379;-71
2024/01/02 07:25:16;;;;;;;;;;;4.00;99.90;;;;;;4995497;28;20387;-71
2024/01/02 07:27:43;;;;;;;;;;;4.10;99.90;;;;;;4995779;28;19926;-71
2024/01/02 07:30:10;;;;;;;;;;;4.10;99.90;;;;;;4995512;28;20391;-71
2024/01/02 07:32:38;;;;;;;;;;;4.20;99.90;;;;;;4994746;28;19926;-72
2024/01/02 07:35:05;;;;;;;;;;;4.20;99.90;;;;;;4995714;28;19930;-73
2024/01/02 07:37:33;;;;;;;;;;;4.20;99.90;;;;;;4995129;28;19926;-73
2024/01/02 07:40:00;;;;;;;;;;;4.40;99.90;;;;;;4996024;28;19965;-74
2024/01/02 07:42:28;;;;;;;;;;;4.60;99.90;;;;;;4995433;28;19926;-74
2024/01/02 07:44:54;;;;;;;;;;;4.60;99.90;;;;;;4995561;28;19926;-73
2024/01/02 07:47:21;;;;;;;;;;;4.60;99.90;;;;;;4995855;28;19933;-74
2024/01/02 07:49:47;;;;;;;;;;;4.60;99.90;;;;;;4995260;28;19925;-75
2024/01/02 07:52:14;;;;;;;;;;;4.60;99.90;;;;;;4995274;28;19933;-74
2024/01/02 07:54:41;;;;;;;;;;;4.60;99.90;;;;;;4995406;28;19926;-74
2024/01/02 07:57:07;;;;;;;;;;;4.60;99.90;;;;;;4995411;28;19933;-73
2024/01/02 07:59:35;;;;;;;;;;;4.60;99.90;;;;;;4995092;28;19926;-73
2024/01/02 08:02:02;;;;;;;;;;;4.60;99.90;;;;;;4995192;28;19926;-73
2024/01/02 08:04:30;;;;;;;;;;;4.60;99.90;;;;;;4994839;28;20408;-72
2024/01/02 08:06:57;;;;;;;;;;;4.70;99.90;;;;;;4995004;28;19983;-73
2024/01/02 08:09:24;;;;;;;;;;;4.70;99.90;;;;;;4995078;28;19976;-73
2024/01/02 08:11:51;;;;;;;;;;;4.70;99.90;;;;;;4995004;28;19945;-73
2024/01/02 08:14:17;;;;;;;;;;;4.80;99.90;;;;;;4994926;28;19926;-73
2024/01/02 08:16:51;;;;;;;;;;;4.80;99.90;;;;;;4994750;28;19925;-73
2024/01/02 08:19:18;;;;;;;;;;;4.80;99.90;;;;;;4995165;28;19926;-74
2024/01/02 08:21:44;;;;;;;;;;;4.90;99.90;;;;;;4996041;28;19926;-71
2024/01/02 08:24:11;;;;;;;;;;;4.90;99.90;;;;;;4997806;28;20287;-73
2024/01/02 08:26:37;;;;;;;;;;;5.00;99.90;;;;;;4998081;28;19926;-74
2024/01/02 08:29:04;;;;;;;;;;;4.90;99.90;;;;;;4999971;28;19926;-73
2024/01/02 08:31:30;;;;;;;;;;;5.00;99.90;;;;;;4998619;28;19926;-73
2024/01/02 08:33:58;;;;;;;;;;;5.00;99.90;;;;;;4998371;28;19925;-74
2024/01/02 08:36:25;;;;;;;;;;;5.00;99.90;;;;;;4998439;28;19933;-75
2024/01/02 08:38:51;;;;;;;;;;;5.10;99.90;;;;;;4999400;28;19929;-74
2024/01/02 08:41:18;;;;;;;;;;;5.10;99.90;;;;;;4997770;28;19929;-75
2024/01/02 08:43:45;;;;;;;;;;;5.10;99.90;;;;;;4997759;28;19932;-75
2024/01/02 08:46:11;;;;;;;;;;;5.10;99.90;;;;;;4997867;28;19926;-74
2024/01/02 08:48:38;;;;;;;;;;;4.70;99.90;;;;;;4998300;28;19987;-75
2024/01/02 08:51:06;;;;;;;;;;;5.10;99.90;;;;;;4994779;28;19933;-74
2024/01/02 08:53:32;;;;;;;;;;;5.10;99.90;;;;;;4994268;28;20271;-75
2024/01/02 08:55:59;;;;;;;;;;;5.10;99.90;;;;;;4994317;28;19926;-74
2024/01/02 08:58:26;;;;;;;;;;;5.20;99.90;;;;;;4993715;28;20400;-74
2024/01/02 09:00:52;;;;;;;;;;;5.20;99.90;;;;;;4994374;28;19953;-74
2024/01/02 09:03:19;;;;;;;;;;;5.20;99.90;;;;;;4994157;28;19926;-74
2024/01/02 09:05:46;;;;;;;;;;;5.20;99.90;;;;;;4994099;28;19932;-74
2024/01/02 09:08:14;;;;;;;;;;;5.20;99.90;;;;;;4994164;28;19925;-74
2024/01/02 09:10:40;;;;;;;;;;;5.20;99.90;;;;;;4994197;28;20080;-75
2024/01/02 09:13:07;;;;;;;;;;;5.20;99.90;;;;;;4994210;28;19967;-75
2024/01/02 09:15:35;;;;;;;;;;;5.30;99.90;;;;;;4994201;28;19930;-75
2024/01/02 09:18:02;;;;;;;;;;;5.30;99.90;;;;;;4994261;28;20029;-75
2024/01/02 09:20:28;;;;;;;;;;;5.30;99.90;;;;;;4993770;28;20287;-75
2024/01/02 09:22:55;;;;;;;;;;;5.30;99.90;;;;;;4993811;28;19926;-75
2024/01/02 09:25:24;;;;;;;;;;;5.40;99.90;;;;;;4994023;28;19926;-75
2024/01/02 09:27:52;;;;;;;;;;;5.40;99.90;;;;;;4994892;28;19926;-76
2024/01/02 09:30:18;;;;;;;;;;;5.40;99.90;;;;;;4994074;28;19926;-75
2024/01/02 09:32:45;;;;;;;;;;;5.50;99.90;;;;;;4993964;28;19933;-74
2024/01/02 09:35:12;;;;;;;;;;;5.50;99.90;;;;;;4993700;28;20375;-74
2024/01/02 09:37:39;;;;;;;;;;;5.60;99.90;;;;;;4993960;28;19926;-75
2024/01/02 09:40:13;;;;;;;;;;;5.60;99.90;;;;;;4993909;28;19933;-75
2024/01/02 09:42:45;;;;;;;;;;;5.60;99.90;;;;;;4993938;28;19930;-75
2024/01/02 09:45:13;;;;;;;;;;;5.60;99.90;;;;;;4994202;28;19926;-74
2024/01/02 09:47:51;;;;;;;;;;;5.60;99.90;;;;;;4994549;28;19926;-74
2024/01/02 09:50:19;;;;;;;;;;;5.70;99.90;;;;;;4994773;28;19972;-74
2024/01/02 09:53:06;;;;;;;;;;;5.70;99.90;;;;;;4994769;28;20025;-74
2024/01/02 09:55:36;;;;;;;;;;;5.70;99.90;;;;;;4996784;28;19969;-75
2024/01/02 09:58:19;;;;;;;;;;;5.70;99.90;;;;;;5001074;28;19925;-73
2024/01/02 10:00:53;;;;;;;;;;;5.80;99.90;;;;;;5000274;28;19932;-75
2024/01/02 10:03:25;;;;;;;;;;;5.80;99.90;;;;;;4998755;28;19932;-75
2024/01/02 10:05:58;;;;;;;;;;;5.90;99.90;;;;;;4999579;28;19925;-75
2024/01/02 10:08:41;;;;;;;;;;;5.90;99.90;;;;;;4998959;28;19930;-74
2024/01/02 10:11:13;;;;;;;;;;;5.90;99.90;;;;;;4998663;28;19930;-74
2024/01/02 10:13:45;;;;;;;;;;;5.90;99.90;;;;;;4999112;28;20286;-74
2024/01/02 10:16:18;;;;;;;;;;;6.00;99.90;;;;;;4998109;28;19925;-74
2024/01/02 10:18:53;;;;;;;;;;;6.00;99.90;;;;;;4998700;28;19926;-74
2024/01/02 10:21:25;;;;;;;;;;;6.00;99.90;;;;;;4998471;28;20315;-74
2024/01/02 10:23:55;;;;;;;;;;;6.10;99.90;;;;;;4999209;28;19973;-74
2024/01/02 10:26:23;;;;;;;;;;;6.00;99.90;;;;;;4998991;28;20263;-74
2024/01/02 10:28:53;;;;;;;;;;;6.00;99.90;;;;;;4998358;28;20350;-74
2024/01/02 10:31:25;;;;;;;;;;;6.10;99.90;;;;;;4999562;28;19926;-73
2024/01/02 10:33:54;;;;;;;;;;;6.10;99.90;;;;;;5001030;28;19926;-74
2024/01/02 10:36:22;;;;;;;;;;;6.10;99.90;;;;;;5002853;28;19968;-74
2024/01/02 10:38:57;;;;;;;;;;;6.10;99.90;;;;;;5000967;28;19932;-75
2024/01/02 10:41:30;;;;;;;;;;;6.10;99.90;;;;;;5001559;28;20296;-76
2024/01/02 10:44:10;;;;;;;;;;;6.10;99.90;;;;;;5002349;28;19926;-76
2024/01/02 10:46:43;;;;;;;;;;;6.10;99.90;;;;;;5001025;28;19940;-74
2024/01/02 10:49:14;;;;;;;;;;;6.10;99.90;;;;;;5000800;28;19932;-74
2024/01/02 10:51:42;;;;;;;;;;;6.20;99.90;;;;;;5000930;28;20334;-75
2024/01/02 10:54:10;;;;;;;;;;;6.10;99.90;;;;;;5000535;28;20005;-75
2024/01/02 10:56:41;;;;;;;;;;;6.20;99.90;;;;;;4999882;28;19926;-76
2024/01/02 10:59:20;;;;;;;;;;;6.20;99.90;;;;;;4998597;28;19937;-76
2024/01/02 11:01:47;;;;;;;;;;;6.30;99.90;;;;;;4997572;28;20085;-75
2024/01/02 11:04:19;;;;;;;;;;;6.30;99.90;;;;;;4997808;28;20325;-74
2024/01/02 11:06:46;;;;;;;;;;;6.30;99.90;;;;;;4997479;28;19930;-74
2024/01/02 11:09:17;;;;;;;;;;;6.30;99.90;;;;;;4998446;28;19926;-75
2024/01/02 11:11:50;;;;;;;;;;;6.30;99.90;;;;;;4997803;28;19960;-75
2024/01/02 11:14:19;;;;;;;;;;;6.30;99.90;;;;;;4998697;28;19925;-73
2024/01/02 11:16:47;;;;;;;;;;;6.30;99.90;;;;;;4999695;28;19926;-74
2024/01/02 11:19:16;;;;;;;;;;;6.30;99.90;;;;;;4999017;28;19947;-74
2024/01/02 11:21:45;;;;;;;;;;;6.30;99.90;;;;;;4998142;28;19976;-75
2024/01/02 11:24:13;;;;;;;;;;;6.40;99.90;;;;;;4999719;28;19926;-73
2024/01/02 11:26:43;;;;;;;;;;;6.30;99.90;;;;;;4998777;28;20387;-74
2024/01/02 11:29:12;;;;;;;;;;;6.40;99.90;;;;;;4998711;28;19933;-74
2024/01/02 11:31:41;;;;;;;;;;;6.30;99.90;;;;;;4997869;28;20040;-74
2024/01/02 11:34:28;;;;;;;;;;;6.40;99.90;;;;;;4999882;28;19957;-73
2024/01/02 11:37:05;;;;;;;;;;;6.40;99.90;;;;;;4995971;28;20011;-74
2024/01/02 11:39:36;;;;;;;;;;;6.40;99.90;;;;;;4995913;28;19926;-74
2024/01/02 11:42:07;;;;;;;;;;;6.40;99.90;;;;;;4995515;28;19933;-75
2024/01/02 11:44:40;;;;;;;;;;;6.40;99.90;;;;;;4995233;28;20295;-74
2024/01/02 11:47:23;;;;;;;;;;;6.50;99.90;;;;;;4996207;28;19976;-74
2024/01/02 11:49:53;;;;;;;;;;;6.40;99.90;;;;;;4996227;28;19933;-74
2024/01/02 11:52:20;;;;;;;;;;;6.50;99.90;;;;;;4995527;28;20391;-75
2024/01/02 11:54:54;;;;;;;;;;;6.50;99.90;;;;;;4995483;28;19925;-75
2024/01/02 11:57:25;;;;;;;;;;;6.50;99.90;;;;;;4995301;28;19929;-75
2024/01/02 11:59:57;;;;;;;;;;;6.60;99.90;;;;;;4996230;28;19926;-74
2024/01/02 12:02:26;;;;;;;;;;;6.50;99.90;;;;;;4996115;28;19925;-74
2024/01/02 12:05:02;;;;;;;;;;;6.50;99.90;;;;;;4995547;28;20469;-74
2024/01/02 12:07:29;;;;;;;;;;;6.60;99.90;;;;;;4996857;28;19980;-73
2024/01/02 12:09:57;;;;;;;;;;;6.60;99.90;;;;;;4996022;28;19926;-74
2024/01/02 12:12:32;;;;;;;;;;;6.60;99.90;;;;;;4996456;28;20370;-74
2024/01/02 12:15:03;;;;;;;;;;;6.60;99.90;;;;;;4995748;28;20068;-76
2024/01/02 12:17:29;;;;;;;;;;;6.80;99.90;;;;;;4994490;28;19930;-75
2024/01/02 12:20:01;;;;;;;;;;;6.60;99.90;;;;;;4994782;28;19929;-75
2024/01/02 12:22:28;;;;;;;;;;;6.60;99.90;;;;;;4994783;28;20296;-75
2024/01/02 12:24:55;;;;;;;;;;;6.60;99.90;;;;;;4994668;28;20402;-75
2024/01/02 12:27:23;;;;;;;;;;;6.60;99.90;;;;;;4994895;28;19926;-76
2024/01/02 12:29:51;;;;;;;;;;;6.60;99.90;;;;;;4994649;28;19930;-76
2024/01/02 12:32:22;;;;;;;;;;;6.60;99.90;;;;;;4994414;28;19926;-75
2024/01/02 12:34:53;;;;;;;;;;;6.60;99.90;;;;;;4994672;28;19937;-75
2024/01/02 12:37:25;;;;;;;;;;;6.70;99.90;;;;;;4995125;28;19926;-72
2024/01/02 12:39:52;;;;;;;;;;;6.70;99.90;;;;;;4994589;28;19974;-73
2024/01/02 12:42:23;;;;;;;;;;;6.70;99.90;;;;;;4994684;28;20031;-73
2024/01/02 12:44:51;;;;;;;;;;;6.70;99.90;;;;;;4994393;28;19977;-73
2024/01/02 12:47:20;;;;;;;;;;;6.70;99.90;;;;;;4994704;28;20379;-76
2024/01/02 12:49:51;;;;;;;;;;;6.70;99.90;;;;;;4995372;28;19933;-75
2024/01/02 12:52:18;;;;;;;;;;;6.70;99.90;;;;;;4995750;28;19926;-75
2024/01/02 12:54:48;;;;;;;;;;;6.70;99.90;;;;;;4995059;28;19926;-75
2024/01/02 12:57:16;;;;;;;;;;;6.70;99.90;;;;;;4995039;28;19930;-75
2024/01/02 12:59:44;;;;;;;;;;;6.70;99.90;;;;;;4994884;28;19930;-75
2024/01/02 13:02:10;;;;;;;;;;;6.70;99.90;;;;;;4995251;28;19964;-75
2024/01/02 13:04:37;;;;;;;;;;;6.70;99.90;;;;;;4995251;28;19925;-75
2024/01/02 13:07:05;;;;;;;;;;;6.60;99.90;;;;;;4997387;28;20014;-75
2024/01/02 13:09:32;;;;;;;;;;;6.60;99.90;;;;;;5000218;28;19933;-75
2024/01/02 13:12:01;;;;;;;;;;;6.60;99.90;;;;;;4997638;28;20466;-75
2024/01/02 13:14:28;;;;;;;;;;;6.60;99.90;;;;;;4994693;28;19956;-75
2024/01/02 13:16:55;;;;;;;;;;;6.60;99.90;;;;;;4994570;28;19926;-75
2024/01/02 13:19:21;;;;;;;;;;;6.60;99.90;;;;;;4994149;28;19926;-75
2024/01/02 13:21:48;;;;;;;;;;;6.50;99.90;;;;;;4993999;28;20380;-75
2024/01/02 13:24:15;;;;;;;;;;;6.60;99.90;;;;;;4994116;28;19925;-76
2024/01/02 13:26:42;;;;;;;;;;;6.50;99.90;;;;;;4994419;28;19933;-76
2024/01/02 13:29:11;;;;;;;;;;;6.60;99.90;;;;;;4993893;28;20291;-76
2024/01/02 13:31:38;;;;;;;;;;;6.50;99.90;;;;;;4997686;28;19976;-76
2024/01/02 13:34:05;;;;;;;;;;;6.50;99.90;;;;;;4998007;28;19926;-76
2024/01/02 13:36:31;;;;;;;;;;;6.50;99.90;;;;;;5021077;23;19926;-74
2024/01/02 13:38:59;;;;;;;;;;;6.50;99.90;;;;;;4997936;28;19932;-74
2024/01/02 13:41:27;;;;;;;;;;;6.50;99.90;;;;;;4998110;28;19961;-74
2024/01/02 13:43:53;;;;;;;;;;;6.50;99.90;;;;;;4997992;28;19929;-74
2024/01/02 13:46:22;;;;;;;;;;;6.50;99.90;;;;;;5009197;28;19929;-74
2024/01/02 13:48:53;;;;;;;;;;;6.50;99.90;;;;;;5017248;28;19926;-73
2024/01/02 13:51:20;;;;;;;;;;;6.50;99.90;;;;;;5017474;28;20390;-72
2024/01/02 13:53:59;;;;;;;;;;;6.50;99.90;;;;;;5017685;28;19932;-73
2024/01/02 13:56:27;;;;;;;;;;;6.40;99.90;;;;;;5017890;28;19925;-74
2024/01/02 13:58:58;;;;;;;;;;;6.40;99.90;;;;;;5017483;28;19929;-73
2024/01/02 14:01:37;;;;;;;;;;;6.50;99.90;;;;;;5017365;28;20325;-73
2024/01/02 14:04:04;;;;;;;;;;;6.60;99.90;;;;;;5017146;28;19933;-73
2024/01/02 14:06:32;;;;;;;;;;;6.60;99.90;;;;;;5017771;28;19925;-75
2024/01/02 14:09:13;;;;;;;;;;;6.70;99.90;;;;;;5017288;28;19932;-74
2024/01/02 14:11:52;;;;;;;;;;;6.60;99.90;;;;;;5017372;28;19983;-74
2024/01/02 14:14:21;;;;;;;;;;;6.60;99.90;;;;;;5017124;28;19925;-74
2024/01/02 14:16:50;;;;;;;;;;;6.50;99.90;;;;;;5019745;28;20345;-73
2024/01/02 14:19:17;;;;;;;;;;;6.50;99.90;;;;;;5019336;28;20287;-72
2024/01/02 14:21:43;;;;;;;;;;;6.50;99.90;;;;;;5018394;28;19926;-74
2024/01/02 14:24:14;;;;;;;;;;;6.40;99.90;;;;;;5018549;28;19930;-74
2024/01/02 14:26:44;;;;;;;;;;;6.40;99.90;;;;;;5018231;28;19929;-74
2024/01/02 14:29:14;;;;;;;;;;;6.40;99.90;;;;;;5018466;28;20379;-75
2024/01/02 14:31:51;;;;;;;;;;;6.40;99.90;;;;;;5018608;28;20382;-74
2024/01/02 14:34:29;;;;;;;;;;;6.40;99.90;;;;;;5017346;28;19933;-73
2024/01/02 14:36:59;;;;;;;;;;;6.30;99.90;;;;;;5016937;28;20303;-73
2024/01/02 14:39:37;;;;;;;;;;;6.30;99.90;;;;;;5017009;28;19926;-73
2024/01/02 14:42:14;;;;;;;;;;;6.30;99.90;;;;;;5016556;28;20283;-72
2024/01/02 14:44:46;;;;;;;;;;;6.30;99.90;;;;;;5016424;28;20429;-74
2024/01/02 14:47:19;;;;;;;;;;;6.30;99.90;;;;;;5017058;28;19934;-74
2024/01/02 14:49:49;;;;;;;;;;;6.30;99.90;;;;;;5016693;28;19933;-74
2024/01/02 14:52:26;;;;;;;;;;;6.30;99.90;;;;;;5016935;28;19925;-74
2024/01/02 14:55:01;;;;;;;;;;;6.20;99.90;;;;;;5016844;28;19925;-73
2024/01/02 14:57:32;;;;;;;;;;;6.20;99.90;;;;;;5016939;28;20438;-73
2024/01/02 15:00:04;;;;;;;;;;;6.20;99.90;;;;;;5016173;28;19932;-72
2024/01/02 15:02:41;;;;;;;;;;;6.30;99.90;;;;;;5017189;28;19925;-73
2024/01/02 15:05:18;;;;;;;;;;;6.20;99.90;;;;;;5017240;28;19925;-74
2024/01/02 15:07:55;;;;;;;;;;;6.20;99.90;;;;;;5016866;28;19926;-73
2024/01/02 15:10:27;;;;;;;;;;;6.20;99.90;;;;;;5016517;28;20413;-73
2024/01/02 15:12:57;;;;;;;;;;;6.20;99.90;;;;;;5017081;28;20290;-74
2024/01/02 15:15:32;;;;;;;;;;;6.20;99.90;;;;;;5016749;28;19926;-74
2024/01/02 15:18:08;;;;;;;;;;;6.20;99.90;;;;;;5015856;28;20379;-73
2024/01/02 15:20:43;;;;;;;;;;;6.20;99.90;;;;;;5016831;28;19925;-73
2024/01/02 15:23:17;;;;;;;;;;;6.20;99.90;;;;;;5016209;28;20016;-72
2024/01/02 15:25:50;;;;;;;;;;;6.20;99.90;;;;;;5015957;28;19925;-74
2024/01/02 15:28:19;;;;;;;;;;;6.20;99.90;;;;;;5016303;28;19950;-74
2024/01/02 15:30:47;;;;;;;;;;;6.30;99.90;;;;;;5016879;28;20283;-74
2024/01/02 15:33:19;;;;;;;;;;;6.20;99.90;;;;;;5016161;28;19932;-75
2024/01/02 15:35:56;;;;;;;;;;;6.20;99.90;;;;;;5015830;28;19933;-74
2024/01/02 15:38:28;;;;;;;;;;;6.20;99.90;;;;;;5016194;28;19925;-73
2024/01/02 15:40:55;;;;;;;;;;;6.10;99.90;;;;;;5015737;28;19925;-73
2024/01/02 15:43:25;;;;;;;;;;;6.20;99.90;;;;;;5016603;28;20382;-74
2024/01/02 15:45:59;;;;;;;;;;;6.20;99.90;;;;;;5018095;28;19936;-73
2024/01/02 15:48:27;;;;;;;;;;;6.10;99.90;;;;;;5017458;28;19976;-73
2024/01/02 15:51:04;;;;;;;;;;;6.20;99.90;;;;;;5016566;28;19987;-73
2024/01/02 15:53:35;;;;;;;;;;;6.10;99.90;;;;;;5015798;28;19937;-73
2024/01/02 15:56:04;;;;;;;;;;;6.20;99.90;;;;;;5015215;28;19929;-74
2024/01/02 15:58:34;;;;;;;;;;;6.20;99.90;;;;;;5015162;28;19926;-73
2024/01/02 16:01:02;;;;;;;;;;;6.10;99.90;;;;;;5015796;28;19926;-72
2024/01/02 16:03:55;;;;;;;;;;;6.10;99.90;;;;;;5015404;28;19926;-73
2024/01/02 16:06:41;;;;;;;;;;;6.20;99.90;;;;;;4980257;28;19960;-73
2024/01/02 16:09:17;;;;;;;;;;;6.20;99.90;;;;;;5015370;28;19941;-73
2024/01/02 16:11:45;;;;;;;;;;;6.10;99.90;;;;;;5014660;28;20406;-72
2024/01/02 16:14:25;;;;;;;;;;;6.30;99.90;;;;;;5014919;28;19926;-72
2024/01/02 16:17:13;;;;;;;;;;;6.20;99.90;;;;;;5014947;28;19944;-72
2024/01/02 16:19:59;;;;;;;;;;;6.20;99.90;;;;;;4989587;28;19938;-72
2024/01/02 16:22:33;;;;;;;;;;;6.20;99.90;;;;;;5014443;28;20379;-73
2024/01/02 16:25:12;;;;;;;;;;;6.10;99.90;;;;;;5014733;28;20298;-72
2024/01/02 16:27:57;;;;;;;;;;;6.20;99.90;;;;;;5014561;28;19932;-73
2024/01/02 16:30:45;;;;;;;;;;;6.10;99.90;;;;;;5014654;28;19925;-72
2024/01/02 16:33:22;;;;;;;;;;;6.10;99.90;;;;;;5010090;28;19932;-74
2024/01/02 16:35:56;;;;;;;;;;;6.10;99.90;;;;;;5014632;28;19932;-73
2024/01/02 16:38:23;;;;;;;;;;;6.10;99.90;;;;;;5014660;28;19952;-72
2024/01/02 16:40:57;;;;;;;;;;;6.20;99.90;;;;;;5014472;28;19947;-74
2024/01/02 16:43:24;;;;;;;;;;;6.10;99.90;;;;;;5014832;28;19925;-74
2024/01/02 16:45:51;;;;;;;;;;;6.10;99.90;;;;;;5014756;28;19972;-73
2024/01/02 16:48:18;;;;;;;;;;;6.10;99.90;;;;;;5014444;28;19926;-72
2024/01/02 16:50:46;;;;;;;;;;;6.10;99.90;;;;;;5014496;28;19926;-73
2024/01/02 16:53:13;;;;;;;;;;;6.10;99.90;;;;;;5014599;28;20314;-73
2024/01/02 16:55:41;;;;;;;;;;;6.10;99.90;;;;;;5014677;28;19926;-73
2024/01/02 16:58:11;;;;;;;;;;;6.10;99.90;;;;;;5014893;28;19933;-73
2024/01/02 17:00:38;;;;;;;;;;;6.10;99.90;;;;;;5014764;28;19956;-73
2024/01/02 17:03:06;;;;;;;;;;;6.10;99.90;;;;;;5014759;28;19965;-74
2024/01/02 17:05:34;;;;;;;;;;;6.10;99.90;;;;;;5020354;28;20452;-74
2024/01/02 17:08:00;;;;;;;;;;;6.10;99.90;;;;;;5021010;28;19953;-73
2024/01/02 17:10:28;;;;;;;;;;;6.10;99.90;;;;;;5021365;28;19932;-74
2024/01/02 17:12:55;;;;;;;;;;;6.00;99.90;;;;;;5021054;28;19937;-75
2024/01/02 17:15:27;;;;;;;;;;;6.00;99.90;;;;;;5021206;28;19925;-73
2024/01/02 17:17:55;;;;;;;;;;;6.10;99.90;;;;;;5025190;28;20018;-74
2024/01/02 17:20:23;;;;;;;;;;;6.10;99.90;;;;;;5025065;28;19932;-74
2024/01/02 17:22:50;;;;;;;;;;;6.10;99.90;;;;;;5025140;28;19926;-75
2024/01/02 17:25:17;;;;;;;;;;;6.00;99.90;;;;;;5025090;28;20386;-75
2024/01/02 17:27:43;;;;;;;;;;;6.00;99.90;;;;;;5025376;28;19937;-73
2024/01/02 17:30:12;;;;;;;;;;;6.00;99.90;;;;;;5025277;28;19932;-74
2024/01/02 17:32:40;;;;;;;;;;;6.00;99.90;;;;;;5024959;28;19925;-73
2024/01/02 17:35:07;;;;;;;;;;;6.00;99.90;;;;;;5024933;28;20283;-74
2024/01/02 17:37:33;;;;;;;;;;;6.00;99.90;;;;;;5025198;28;20301;-74
2024/01/02 17:40:00;;;;;;;;;;;6.00;99.90;;;;;;5025397;28;19932;-73
2024/01/02 17:42:28;;;;;;;;;;;6.00;99.90;;;;;;5025742;28;19926;-73
2024/01/02 17:44:54;;;;;;;;;;;6.00;99.90;;;;;;5025755;28;19925;-73
2024/01/02 17:47:21;;;;;;;;;;;6.00;99.90;;;;;;5025764;28;20310;-72
2024/01/02 17:49:49;;;;;;;;;;;6.00;99.90;;;;;;5025915;28;19926;-73
2024/01/02 17:52:16;;;;;;;;;;;6.00;99.90;;;;;;5026164;28;19925;-73
2024/01/02 17:54:45;;;;;;;;;;;6.00;99.90;;;;;;5026194;28;19929;-73
2024/01/02 17:57:22;;;;;;;;;;;6.00;99.90;;;;;;5024959;28;19926;-73
2024/01/02 17:59:56;;;;;;;;;;;6.00;99.90;;;;;;5024400;28;19948;-74
2024/01/02 18:02:26;;;;;;;;;;;6.00;99.90;;;;;;5025084;28;19926;-73
2024/01/02 18:04:58;;;;;;;;;;;6.00;99.90;;;;;;5024796;28;20037;-73
2024/01/02 18:07:28;;;;;;;;;;;6.00;99.90;;;;;;5023789;28;19926;-72
2024/01/02 18:10:01;;;;;;;;;;;6.00;99.90;;;;;;5023627;28;19932;-73
2024/01/02 18:12:42;;;;;;;;;;;6.00;99.90;;;;;;5023338;28;19932;-73
2024/01/02 18:15:24;;;;;;;;;;;6.00;99.90;;;;;;5023143;28;19925;-73
2024/01/02 18:17:55;;;;;;;;;;;6.00;99.90;;;;;;5020534;28;19925;-73
2024/01/02 18:20:35;;;;;;;;;;;6.10;99.90;;;;;;5020390;28;19925;-73
2024/01/02 18:23:02;;;;;;;;;;;6.10;99.90;;;;;;5021118;28;19926;-73
2024/01/02 18:25:35;;;;;;;;;;;6.00;99.90;;;;;;5021135;28;20303;-73
2024/01/02 18:28:12;;;;;;;;;;;6.00;99.90;;;;;;5021519;28;19937;-73
2024/01/02 18:30:47;;;;;;;;;;;6.00;99.90;;;;;;5020782;28;19973;-74
2024/01/02 18:33:22;;;;;;;;;;;6.00;99.90;;;;;;5020394;28;19930;-73
2024/01/02 18:35:55;;;;;;;;;;;6.10;99.90;;;;;;5019746;28;19925;-73
2024/01/02 18:38:31;;;;;;;;;;;6.00;99.90;;;;;;5019555;28;19925;-72
2024/01/02 18:41:19;;;;;;;;;;;6.10;99.90;;;;;;5020770;28;19976;-72
2024/01/02 18:43:52;;;;;;;;;;;6.00;99.90;;;;;;5015510;28;19932;-73
2024/01/02 18:46:21;;;;;;;;;;;6.10;99.90;;;;;;5021678;28;19925;-73
2024/01/02 18:48:50;;;;;;;;;;;6.10;99.90;;;;;;5022128;28;20291;-73
2024/01/02 18:51:24;;;;;;;;;;;6.10;99.90;;;;;;5020597;28;19925;-73
2024/01/02 18:53:57;;;;;;;;;;;6.10;99.90;;;;;;5020551;28;19931;-74
2024/01/02 18:56:25;;;;;;;;;;;6.10;99.90;;;;;;5019585;28;20016;-71
2024/01/02 18:58:52;;;;;;;;;;;6.10;99.90;;;;;;5019537;28;20311;-74
2024/01/02 19:01:19;;;;;;;;;;;6.10;99.90;;;;;;5020585;28;19961;-72
2024/01/02 19:03:46;;;;;;;;;;;6.10;99.90;;;;;;5019632;28;20017;-72
2024/01/02 19:06:26;;;;;;;;;;;6.10;99.90;;;;;;5019376;28;19929;-72
2024/01/02 19:08:53;;;;;;;;;;;6.10;99.90;;;;;;5019935;28;19929;-74
2024/01/02 19:11:21;;;;;;;;;;;6.10;99.90;;;;;;5020525;28;19926;-74
2024/01/02 19:13:49;;;;;;;;;;;6.10;99.90;;;;;;5020123;28;19925;-75
2024/01/02 19:16:16;;;;;;;;;;;6.20;99.90;;;;;;5020307;28;19926;-75
2024/01/02 19:18:45;;;;;;;;;;;6.20;99.90;;;;;;5020340;28;19931;-74
2024/01/02 19:21:14;;;;;;;;;;;6.20;99.90;;;;;;5020310;28;19968;-75
2024/01/02 19:23:43;;;;;;;;;;;6.20;99.90;;;;;;5020336;28;19948;-74
2024/01/02 19:26:11;;;;;;;;;;;6.20;99.90;;;;;;5019945;28;19925;-75
2024/01/02 19:28:37;;;;;;;;;;;6.30;99.90;;;;;;5018938;28;20008;-75
2024/01/02 19:31:05;;;;;;;;;;;6.30;99.90;;;;;;5020755;28;19930;-76
2024/01/02 19:33:33;;;;;;;;;;;6.30;99.90;;;;;;5019678;28;19925;-74
2024/01/02 19:35:59;;;;;;;;;;;6.30;99.90;;;;;;5038515;23;19933;-76
2024/01/02 19:38:26;;;;;;;;;;;6.70;99.90;;;;;;5000663;28;19930;-76
2024/01/02 19:40:54;;;;;;;;;;;6.40;99.90;;;;;;4999972;28;19934;-75
2024/01/02 19:43:21;;;;;;;;;;;6.40;99.90;;;;;;4999736;28;19929;-75
2024/01/02 19:45:48;;;;;;;;;;;6.30;99.90;;;;;;5002891;28;19925;-76
2024/01/02 19:48:15;;;;;;;;;;;6.40;99.90;;;;;;5019008;28;20402;-75
2024/01/02 19:50:42;;;;;;;;;;;6.40;99.90;;;;;;5019752;28;20306;-74
2024/01/02 19:53:09;;;;;;;;;;;6.40;99.90;;;;;;5016705;28;19972;-75
2024/01/02 19:55:36;;;;;;;;;;;6.50;99.90;;;;;;5016637;28;19933;-75
2024/01/02 19:58:04;;;;;;;;;;;6.40;99.90;;;;;;5016196;28;19989;-75
2024/01/02 20:00:31;;;;;;;;;;;6.50;99.90;;;;;;5017819;28;19926;-77
2024/01/02 20:02:58;;;;;;;;;;;6.40;99.90;;;;;;5021211;28;19931;-75
2024/01/02 20:05:30;;;;;;;;;;;6.50;99.90;;;;;;5021401;28;20019;-74
2024/01/02 20:08:16;;;;;;;;;;;6.50;99.90;;;;;;5021110;28;19925;-74
2024/01/02 20:10:45;;;;;;;;;;;6.50;99.90;;;;;;5020074;28;19926;-74
2024/01/02 20:13:14;;;;;;;;;;;6.50;99.90;;;;;;5018437;28;20268;-77
2024/01/02 20:15:47;;;;;;;;;;;6.50;99.90;;;;;;5018471;28;19925;-76
2024/01/02 20:18:49;;;;;;;;;;;6.60;99.90;;;;;;5019777;28;19932;-76
2024/01/02 20:21:18;;;;;;;;;;;6.50;99.90;;;;;;5021724;28;20367;-76
2024/01/02 20:23:46;;;;;;;;;;;6.60;99.90;;;;;;5021831;28;19975;-75
2024/01/02 20:26:14;;;;;;;;;;;6.50;99.90;;;;;;5021234;28;19922;-77
2024/01/02 20:28:48;;;;;;;;;;;6.60;99.90;;;;;;5023093;28;20386;-76
2024/01/02 20:31:29;;;;;;;;;;;6.90;99.90;;;;;;5022510;28;19926;-76
2024/01/02 20:33:56;;;;;;;;;;;6.60;99.90;;;;;;5021792;28;19933;-76
2024/01/02 20:36:23;;;;;;;;;;;6.60;99.90;;;;;;5021395;28;20021;-74
2024/01/02 20:38:50;;;;;;;;;;;6.60;99.90;;;;;;5019489;28;20272;-75
2024/01/02 20:41:34;;;;;;;;;;;6.60;99.90;;;;;;5018638;28;19933;-75
2024/01/02 20:44:02;;;;;;;;;;;6.50;99.90;;;;;;5019000;28;19937;-77
2024/01/02 20:46:30;;;;;;;;;;;6.60;99.90;;;;;;5017916;28;19926;-77